createdAt,value
2022-09-07T00:02:24.229Z,0.43
2022-09-07T00:04:51.180Z,0.40
2022-09-07T00:07:18.108Z,0.73
2022-09-07T00:09:44.982Z,0.40
2022-09-07T00:12:11.811Z,0.40
2022-09-07T00:14:38.690Z,0.50
2022-09-07T00:17:05.606Z,0.57
2022-09-07T00:19:32.539Z,0.68
2022-09-07T00:21:59.429Z,0.45
2022-09-07T00:24:26.399Z,0.65
2022-09-07T00:26:55.806Z,0.50
2022-09-07T00:29:23.204Z,1.08
2022-09-07T00:31:50.145Z,0.40
2022-09-07T00:34:17.197Z,0.50
2022-09-07T00:36:44.046Z,0.45
2022-09-07T00:39:10.908Z,0.35
2022-09-07T00:41:37.783Z,0.43
2022-09-07T00:44:58.480Z,0.38
2022-09-07T00:47:37.124Z,0.70
2022-09-07T00:50:20.767Z,0.45
2022-09-07T00:52:51.943Z,0.50
2022-09-07T00:55:19.460Z,0.32
2022-09-07T00:57:50.715Z,0.30
2022-09-07T01:00:17.941Z,0.50
2022-09-07T01:02:46.988Z,0.43
2022-09-07T01:05:27.906Z,0.57
2022-09-07T01:07:56.839Z,0.38
2022-09-07T01:10:31.958Z,0.32
2022-09-07T01:13:00.282Z,0.50
2022-09-07T01:15:42.302Z,0.35
2022-09-07T01:18:42.437Z,0.45
2022-09-07T01:21:53.227Z,0.40
2022-09-07T01:24:37.840Z,0.40
2022-09-07T01:27:32.065Z,0.20
2022-09-07T01:30:17.858Z,0.50
2022-09-07T01:32:55.584Z,0.32
2022-09-07T01:35:50.539Z,0.40
2022-09-07T01:38:38.491Z,0.28
2022-09-07T01:41:17.184Z,0.35
2022-09-07T01:43:51.909Z,0.85
2022-09-07T01:46:30.131Z,0.32
2022-09-07T01:49:24.393Z,0.43
2022-09-07T01:51:58.428Z,0.40
2022-09-07T01:54:40.656Z,0.60
2022-09-07T01:57:15.046Z,0.30
2022-09-07T01:59:57.315Z,0.60
2022-09-07T02:02:30.854Z,0.30
2022-09-07T02:05:11.736Z,0.55
2022-09-07T02:08:03.138Z,0.20
2022-09-07T02:10:39.052Z,0.32
2022-09-07T02:13:17.941Z,0.63
2022-09-07T02:15:54.853Z,0.40
2022-09-07T02:18:24.348Z,0.40
2022-09-07T02:20:56.498Z,0.30
2022-09-07T02:23:28.118Z,0.20
2022-09-07T02:26:02.502Z,0.45
2022-09-07T02:28:35.517Z,0.43
2022-09-07T02:31:03.170Z,0.38
2022-09-07T02:33:30.711Z,0.40
2022-09-07T02:35:58.156Z,0.38
2022-09-07T02:38:25.821Z,0.40
2022-09-07T02:40:54.731Z,0.30
2022-09-07T02:43:23.776Z,0.35
2022-09-07T02:46:09.608Z,0.20
2022-09-07T02:49:17.988Z,0.30
2022-09-07T02:52:06.075Z,0.50
2022-09-07T02:54:49.498Z,0.40
2022-09-07T02:57:39.569Z,0.40
2022-09-07T03:00:11.542Z,0.57
2022-09-07T03:02:54.855Z,0.30
2022-09-07T03:05:24.670Z,0.40
2022-09-07T03:08:04.260Z,0.28
2022-09-07T03:10:31.980Z,0.30
2022-09-07T03:12:58.929Z,0.32
2022-09-07T03:15:28.070Z,0.32
2022-09-07T03:17:55.054Z,0.17
2022-09-07T03:20:22.899Z,0.32
2022-09-07T03:22:51.357Z,0.28
2022-09-07T03:25:19.284Z,0.10
2022-09-07T03:27:46.248Z,0.55
2022-09-07T03:30:13.769Z,0.30
2022-09-07T03:32:40.749Z,0.40
2022-09-07T03:35:08.669Z,0.30
2022-09-07T03:37:37.098Z,0.22
2022-09-07T03:40:06.539Z,0.30
2022-09-07T03:42:33.762Z,0.30
2022-09-07T03:45:00.614Z,0.20
2022-09-07T03:47:27.846Z,0.22
2022-09-07T03:49:54.787Z,0.32
2022-09-07T03:52:21.937Z,0.20
2022-09-07T03:54:48.981Z,0.47
2022-09-07T03:57:16.066Z,0.30
2022-09-07T03:59:42.985Z,0.30
2022-09-07T04:02:09.907Z,0.30
2022-09-07T04:04:36.774Z,0.22
2022-09-07T04:07:03.893Z,0.20
2022-09-07T04:09:31.031Z,0.22
2022-09-07T04:11:57.889Z,0.25
2022-09-07T04:14:24.898Z,0.30
2022-09-07T04:16:51.923Z,0.22
2022-09-07T04:19:18.786Z,0.22
2022-09-07T04:21:47.238Z,0.22
2022-09-07T04:24:16.347Z,0.20
2022-09-07T04:26:44.529Z,0.20
2022-09-07T04:29:13.090Z,0.32
2022-09-07T04:31:40.331Z,0.30
2022-09-07T04:34:07.881Z,0.30
2022-09-07T04:36:34.951Z,0.28
2022-09-07T04:39:04.778Z,0.32
2022-09-07T04:41:33.114Z,0.38
2022-09-07T04:44:02.446Z,0.20
2022-09-07T04:46:34.678Z,0.55
2022-09-07T04:49:08.690Z,0.30
2022-09-07T04:51:37.689Z,0.20
2022-09-07T04:54:05.353Z,0.52
2022-09-07T04:56:32.883Z,0.43
2022-09-07T04:59:01.457Z,0.40
2022-09-07T05:01:28.772Z,0.43
2022-09-07T05:03:55.818Z,0.52
2022-09-07T05:06:23.458Z,0.70
2022-09-07T05:08:52.666Z,0.50
2022-09-07T05:13:10.316Z,0.40
2022-09-07T05:15:37.229Z,0.30
2022-09-07T05:18:04.820Z,0.40
2022-09-07T05:20:31.763Z,0.52
2022-09-07T05:22:59.656Z,0.63
2022-09-07T05:25:30.175Z,0.50
2022-09-07T05:27:57.489Z,0.45
2022-09-07T05:33:12.458Z,0.45
2022-09-07T05:35:39.567Z,0.40
2022-09-07T05:38:06.590Z,0.50
2022-09-07T05:40:38.472Z,0.50
2022-09-07T05:43:10.400Z,0.98
2022-09-07T05:45:37.337Z,0.82
2022-09-07T05:48:05.728Z,0.52
2022-09-07T05:50:32.661Z,0.55
2022-09-07T05:52:59.722Z,0.63
2022-09-07T05:55:30.779Z,0.35
2022-09-07T05:57:57.929Z,0.90
2022-09-07T06:00:24.858Z,0.60
2022-09-07T06:02:51.860Z,0.40
2022-09-07T06:05:18.861Z,0.40
2022-09-07T06:07:48.785Z,0.70
2022-09-07T06:13:03.967Z,0.43
2022-09-07T06:15:33.781Z,1.23
2022-09-07T06:18:00.625Z,0.70
2022-09-07T06:20:27.635Z,0.38
2022-09-07T06:22:54.673Z,1.48
2022-09-07T06:25:21.570Z,1.60
2022-09-07T06:27:49.717Z,1.85
2022-09-07T06:30:16.793Z,1.95
2022-09-07T06:32:44.153Z,2.13
2022-09-07T06:35:12.386Z,1.80
2022-09-07T06:37:39.639Z,1.00
2022-09-07T06:40:07.921Z,0.70
2022-09-07T06:42:34.898Z,0.75
2022-09-07T06:45:01.867Z,0.65
2022-09-07T06:47:28.720Z,0.80
2022-09-07T06:49:55.652Z,0.80
2022-09-07T06:52:22.573Z,0.60
2022-09-07T06:55:04.705Z,0.47
2022-09-07T06:57:31.645Z,0.60
2022-09-07T06:59:58.546Z,0.60
2022-09-07T07:02:25.461Z,1.05
2022-09-07T07:04:52.357Z,0.63
2022-09-07T07:07:19.282Z,0.57
2022-09-07T07:09:46.118Z,0.40
2022-09-07T07:12:12.998Z,0.32
2022-09-07T07:14:44.669Z,0.30
2022-09-07T07:17:12.556Z,0.30
2022-09-07T07:19:39.526Z,0.40
2022-09-07T07:24:53.219Z,0.70
2022-09-07T07:27:21.601Z,0.43
2022-09-07T07:29:48.537Z,0.20
2022-09-07T07:32:15.959Z,0.43
2022-09-07T07:34:42.818Z,0.20
2022-09-07T07:37:09.646Z,1.10
2022-09-07T07:42:24.051Z,0.32
2022-09-07T07:47:38.307Z,0.40
2022-09-07T07:55:43.770Z,0.43
2022-09-07T07:58:10.849Z,0.30
2022-09-07T08:03:22.663Z,0.68
2022-09-07T08:05:49.601Z,0.98
2022-09-07T08:08:16.544Z,0.63
2022-09-07T08:10:43.564Z,0.75
2022-09-07T08:13:10.468Z,0.60
2022-09-07T08:15:44.583Z,0.77
2022-09-07T08:18:20.257Z,0.68
2022-09-07T08:20:47.074Z,0.70
2022-09-07T08:23:14.779Z,0.80
2022-09-07T08:25:50.732Z,0.75
2022-09-07T08:28:17.941Z,0.43
2022-09-07T08:30:44.865Z,0.52
2022-09-07T08:33:13.857Z,0.43
2022-09-07T08:35:40.768Z,0.40
2022-09-07T08:38:07.771Z,0.50
2022-09-07T08:40:37.748Z,0.30
2022-09-07T08:43:10.305Z,0.30
2022-09-07T08:45:44.828Z,0.40
2022-09-07T08:48:18.795Z,0.40
2022-09-07T08:50:54.620Z,0.43
2022-09-07T08:53:22.622Z,0.60
2022-09-07T08:56:00.109Z,0.57
2022-09-07T08:58:49.226Z,0.25
2022-09-07T09:01:37.087Z,0.40
2022-09-07T09:04:19.448Z,0.40
2022-09-07T09:07:19.725Z,0.40
2022-09-07T09:10:27.423Z,0.30
2022-09-07T09:13:06.501Z,0.60
2022-09-07T09:15:33.328Z,0.65
2022-09-07T09:18:03.893Z,0.50
2022-09-07T09:20:58.402Z,0.45
2022-09-07T09:23:28.228Z,0.30
2022-09-07T09:25:58.073Z,0.32
2022-09-07T09:28:26.590Z,0.63
2022-09-07T09:30:55.831Z,0.55
2022-09-07T09:33:27.946Z,0.40
2022-09-07T09:36:01.818Z,0.38
2022-09-07T09:38:39.573Z,0.68
2022-09-07T09:41:10.233Z,0.40
2022-09-07T09:43:54.399Z,0.40
2022-09-07T09:46:35.105Z,0.40
2022-09-07T09:49:15.841Z,0.45
2022-09-07T09:54:42.871Z,0.60
2022-09-07T09:57:35.422Z,0.43
2022-09-07T10:00:08.421Z,0.35
2022-09-07T10:05:29.514Z,0.85
2022-09-07T10:07:56.911Z,1.10
2022-09-07T10:10:25.335Z,0.70
2022-09-07T10:12:54.553Z,0.98
2022-09-07T10:15:41.250Z,0.75
2022-09-07T10:18:18.791Z,0.63
2022-09-07T10:20:45.630Z,0.63
2022-09-07T10:23:25.375Z,1.35
2022-09-07T10:25:52.312Z,0.90
2022-09-07T10:28:22.506Z,1.20
2022-09-07T10:31:12.458Z,1.83
2022-09-07T10:36:55.004Z,0.85
2022-09-07T10:39:41.591Z,0.88
2022-09-07T10:42:20.576Z,0.55
2022-09-07T10:45:17.961Z,0.95
2022-09-07T10:47:58.634Z,0.80
2022-09-07T10:50:32.513Z,0.70
2022-09-07T10:54:29.104Z,0.90
2022-09-07T10:56:10.346Z,0.77
2022-09-07T11:01:33.458Z,1.00
2022-09-07T11:04:09.638Z,0.90
2022-09-07T11:06:53.157Z,0.45
2022-09-07T11:09:34.197Z,0.60
2022-09-07T11:12:09.405Z,0.50
2022-09-07T11:14:44.664Z,0.40
2022-09-07T11:17:21.757Z,0.20
2022-09-07T11:20:12.865Z,0.30
2022-09-07T11:22:48.502Z,0.20
2022-09-07T11:25:31.292Z,0.50
2022-09-07T11:28:12.017Z,3.05
2022-09-07T11:30:47.735Z,0.30
2022-09-07T11:33:23.107Z,0.60
2022-09-07T11:36:12.587Z,0.50
2022-09-07T11:38:48.143Z,0.30
2022-09-07T11:41:21.172Z,0.57
2022-09-07T11:44:17.592Z,0.38
2022-09-07T11:46:46.560Z,0.63
2022-09-07T11:49:22.885Z,0.50
2022-09-07T11:52:06.876Z,0.50
2022-09-07T11:55:00.095Z,0.52
2022-09-07T11:57:26.857Z,0.25
2022-09-07T12:00:12.425Z,0.30
2022-09-07T12:03:01.100Z,0.35
2022-09-07T12:05:46.434Z,0.85
2022-09-07T12:08:41.102Z,0.32
2022-09-07T12:11:29.605Z,0.38
2022-09-07T12:14:08.356Z,0.52
2022-09-07T12:16:52.616Z,0.50
2022-09-07T12:19:24.940Z,0.52
2022-09-07T12:21:51.791Z,0.43
2022-09-07T12:24:36.412Z,0.43
2022-09-07T12:27:19.881Z,0.20
2022-09-07T12:30:12.731Z,0.60
2022-09-07T12:32:56.900Z,0.65
2022-09-07T12:35:33.899Z,0.55
2022-09-07T12:38:24.563Z,0.43
2022-09-07T12:40:59.057Z,0.65
2022-09-07T12:43:42.910Z,0.77
2022-09-07T12:46:30.074Z,0.65
2022-09-07T12:49:04.580Z,1.25
2022-09-07T12:54:24.387Z,0.10
2022-09-07T13:00:06.974Z,0.20
2022-09-07T13:03:49.100Z,0.20
2022-09-07T13:06:12.695Z,0.40
2022-09-07T13:09:17.393Z,0.15
2022-09-07T13:11:45.638Z,0.40
2022-09-07T13:14:16.179Z,0.43
2022-09-07T13:19:51.013Z,0.10
2022-09-07T13:22:32.775Z,0.20
2022-09-07T13:25:22.457Z,0.20
2022-09-07T13:28:01.816Z,0.10
2022-09-07T13:30:44.663Z,0.30
2022-09-07T13:33:30.138Z,0.20
2022-09-07T13:36:34.832Z,0.28
2022-09-07T13:39:05.169Z,0.15
2022-09-07T13:41:43.643Z,0.22
2022-09-07T13:44:27.275Z,0.55
2022-09-07T13:47:04.828Z,0.10
2022-09-07T13:49:56.075Z,0.20
2022-09-07T13:52:37.126Z,0.40
2022-09-07T13:55:33.057Z,0.10
2022-09-07T13:58:05.412Z,0.10
2022-09-07T14:00:33.040Z,0.10
2022-09-07T14:03:06.262Z,0.20
2022-09-07T14:05:33.675Z,0.13
2022-09-07T14:08:00.562Z,0.13
2022-09-07T14:10:28.256Z,0.20
2022-09-07T14:13:08.384Z,0.20
2022-09-07T14:15:45.036Z,0.30
2022-09-07T14:20:44.250Z,0.30
2022-09-07T14:23:21.098Z,0.13
2022-09-07T14:28:39.485Z,0.38
2022-09-07T14:31:11.060Z,0.10
2022-09-07T14:33:38.885Z,0.22
2022-09-07T14:36:29.563Z,0.17
2022-09-07T14:39:08.762Z,0.30
2022-09-07T14:41:38.571Z,0.22
2022-09-07T14:44:06.463Z,0.10
2022-09-07T14:46:34.619Z,0.13
2022-09-07T14:49:13.836Z,0.25
2022-09-07T14:51:44.477Z,0.20
2022-09-07T14:54:25.268Z,0.40
2022-09-07T14:57:09.905Z,0.20
2022-09-07T14:59:47.897Z,0.20
2022-09-07T15:02:29.538Z,0.20
2022-09-07T15:05:23.212Z,0.30
2022-09-07T15:07:57.788Z,0.22
2022-09-07T15:10:25.546Z,0.13
2022-09-07T15:12:55.166Z,0.10
2022-09-07T15:15:26.756Z,0.17
2022-09-07T15:18:04.580Z,0.20
2022-09-07T15:20:43.196Z,0.20
2022-09-07T15:23:27.989Z,0.10
2022-09-07T15:25:54.952Z,0.22
2022-09-07T15:34:11.635Z,0.22
2022-09-07T15:41:40.105Z,0.20
2022-09-07T15:44:07.518Z,0.20
2022-09-07T15:46:36.693Z,0.10
2022-09-07T15:49:04.809Z,0.13
2022-09-07T15:54:20.723Z,0.22
2022-09-07T15:59:35.272Z,0.32
2022-09-07T16:02:03.011Z,0.50
2022-09-07T16:04:30.231Z,0.20
2022-09-07T16:06:57.136Z,0.20
2022-09-07T16:09:24.101Z,0.20
2022-09-07T16:11:51.288Z,0.43
2022-09-07T16:14:18.786Z,0.38
2022-09-07T16:19:34.940Z,0.20
2022-09-07T16:22:03.144Z,0.30
2022-09-07T16:24:30.292Z,0.20
2022-09-07T16:26:57.284Z,0.43
2022-09-07T16:29:24.745Z,0.40
2022-09-07T16:34:39.992Z,0.90
2022-09-07T16:37:07.425Z,0.30
2022-09-07T16:39:34.388Z,0.32
2022-09-07T16:42:02.525Z,0.32
2022-09-07T16:44:29.358Z,0.60
2022-09-07T16:46:56.239Z,0.30
2022-09-07T16:49:23.178Z,0.30
2022-09-07T16:51:50.260Z,0.40
2022-09-07T16:54:17.448Z,0.40
2022-09-07T16:56:44.431Z,0.52
2022-09-07T16:59:18.173Z,0.63
2022-09-07T17:01:45.102Z,0.32
2022-09-07T17:04:12.351Z,0.57
2022-09-07T17:06:40.119Z,0.52
2022-09-07T17:09:07.642Z,0.75
2022-09-07T17:11:36.467Z,0.50
2022-09-07T17:14:06.520Z,0.65
2022-09-07T17:16:36.460Z,0.30
2022-09-07T17:21:52.777Z,0.40
2022-09-07T17:24:19.915Z,0.63
2022-09-07T17:26:47.129Z,0.63
2022-09-07T17:29:15.149Z,0.68
2022-09-07T17:34:30.252Z,0.57
2022-09-07T17:36:57.425Z,0.57
2022-09-07T17:39:24.274Z,0.82
2022-09-07T17:41:54.655Z,1.15
2022-09-07T17:44:23.497Z,1.90
2022-09-07T17:46:51.112Z,2.47
2022-09-07T17:49:18.230Z,2.13
2022-09-07T17:51:48.513Z,1.95
2022-09-07T17:54:18.334Z,1.90
2022-09-07T17:56:45.840Z,2.42
2022-09-07T18:02:00.886Z,5.95
2022-09-07T18:04:28.550Z,4.47
2022-09-07T18:06:55.681Z,11.38
2022-09-07T18:09:22.825Z,10.85
2022-09-07T18:11:50.562Z,14.57
2022-09-07T18:14:19.049Z,10.07
2022-09-07T18:16:48.789Z,7.43
2022-09-07T18:19:16.921Z,7.40
2022-09-07T18:21:48.385Z,3.92
2022-09-07T18:24:23.194Z,4.45
2022-09-07T18:26:52.649Z,3.38
2022-09-07T18:29:32.524Z,2.72
2022-09-07T18:32:03.208Z,2.53
2022-09-07T18:34:31.877Z,2.88
2022-09-07T18:36:59.676Z,2.92
2022-09-07T18:39:26.921Z,2.63
2022-09-07T18:41:54.728Z,2.72
2022-09-07T18:47:08.839Z,2.08
2022-09-07T18:49:35.657Z,2.42
2022-09-07T18:54:50.511Z,1.95
2022-09-07T18:57:17.492Z,1.90
2022-09-07T18:59:44.624Z,1.73
2022-09-07T19:02:12.145Z,2.13
2022-09-07T19:07:29.603Z,2.53
2022-09-07T19:09:57.443Z,2.33
2022-09-07T19:12:24.642Z,2.83
2022-09-07T19:14:51.684Z,2.50
2022-09-07T19:17:19.157Z,1.70
2022-09-07T19:19:45.996Z,2.15
2022-09-07T19:22:12.854Z,1.77
2022-09-07T19:24:39.800Z,2.17
2022-09-07T19:27:07.378Z,2.03
2022-09-07T19:29:34.501Z,2.38
2022-09-07T19:32:04.244Z,2.30
2022-09-07T19:34:36.564Z,2.17
2022-09-07T19:37:05.465Z,3.03
2022-09-07T19:39:32.439Z,2.58
2022-09-07T19:41:59.321Z,2.50
2022-09-07T19:44:26.323Z,2.75
2022-09-07T19:46:53.241Z,1.98
2022-09-07T19:49:20.237Z,2.60
2022-09-07T19:51:49.425Z,2.28
2022-09-07T19:54:16.279Z,2.45
2022-09-07T19:56:43.425Z,2.20
2022-09-07T19:59:10.818Z,2.65
2022-09-07T20:01:40.031Z,2.80
2022-09-07T20:04:14.821Z,2.20
2022-09-07T20:06:44.393Z,2.38
2022-09-07T20:09:13.888Z,2.58
2022-09-07T20:11:45.630Z,2.53
2022-09-07T20:14:14.624Z,2.88
2022-09-07T20:16:44.620Z,2.55
2022-09-07T20:19:14.868Z,3.03
2022-09-07T20:21:42.691Z,2.80
2022-09-07T20:24:12.345Z,2.33
2022-09-07T20:26:39.236Z,3.15
2022-09-07T20:29:26.115Z,2.92
2022-09-07T20:31:53.853Z,2.90
2022-09-07T20:34:20.952Z,3.05
2022-09-07T20:36:49.791Z,2.92
2022-09-07T20:39:17.305Z,2.50
2022-09-07T20:41:44.557Z,2.90
2022-09-07T20:44:11.691Z,3.20
2022-09-07T20:46:38.835Z,2.55
2022-09-07T20:49:06.156Z,2.60
2022-09-07T20:51:33.256Z,3.50
2022-09-07T20:54:00.231Z,2.85
2022-09-07T20:56:28.897Z,2.40
2022-09-07T20:59:01.185Z,2.92
2022-09-07T21:01:31.308Z,2.72
2022-09-07T21:04:00.472Z,2.88
2022-09-07T21:06:28.980Z,2.33
2022-09-07T21:08:57.293Z,2.88
2022-09-07T21:11:32.910Z,2.88
2022-09-07T21:14:02.151Z,3.22
2022-09-07T21:16:29.310Z,2.75
2022-09-07T21:18:59.142Z,2.50
2022-09-07T21:21:27.517Z,2.78
2022-09-07T21:23:59.566Z,2.22
2022-09-07T21:26:28.276Z,2.53
2022-09-07T21:28:56.952Z,2.70
2022-09-07T21:31:24.395Z,2.47
2022-09-07T21:34:01.917Z,2.28
2022-09-07T21:36:30.079Z,1.83
2022-09-07T21:38:57.089Z,1.50
2022-09-07T21:41:24.953Z,1.55
2022-09-07T21:43:59.072Z,1.23
2022-09-07T21:46:26.933Z,1.27
2022-09-07T21:48:55.466Z,1.10
2022-09-07T21:51:22.953Z,1.13
2022-09-07T21:53:54.617Z,1.15
2022-09-07T21:56:21.918Z,1.17
2022-09-07T21:58:52.734Z,0.77
2022-09-07T22:03:48.559Z,0.90
2022-09-07T22:06:15.513Z,0.95
2022-09-07T22:08:42.826Z,0.90
2022-09-07T22:11:13.037Z,1.02
2022-09-07T22:13:40.677Z,0.95
2022-09-07T22:16:08.287Z,1.10
2022-09-07T22:18:37.332Z,1.05
2022-09-07T22:21:09.943Z,1.10
2022-09-07T22:23:40.388Z,0.82
2022-09-07T22:26:07.925Z,0.85
2022-09-07T22:28:36.222Z,1.02
2022-09-07T22:31:19.375Z,0.80
2022-09-07T22:33:47.789Z,0.82
2022-09-07T22:36:24.134Z,1.05
2022-09-07T22:38:53.953Z,0.73
2022-09-07T22:41:27.049Z,0.52
2022-09-07T22:43:54.493Z,0.40
2022-09-07T22:46:24.288Z,0.70
2022-09-07T22:48:54.035Z,0.70
2022-09-07T22:51:21.407Z,1.00
2022-09-07T22:53:48.558Z,0.60
2022-09-07T22:56:18.662Z,0.68
2022-09-07T22:58:51.588Z,0.65
2022-09-07T23:01:19.457Z,0.70
2022-09-07T23:03:46.642Z,0.47
2022-09-07T23:06:22.854Z,0.63
2022-09-07T23:08:51.360Z,0.70
2022-09-07T23:11:18.794Z,0.90
2022-09-07T23:13:45.972Z,0.63
2022-09-07T23:16:12.825Z,0.95
2022-09-07T23:18:42.842Z,1.48
2022-09-07T23:21:10.912Z,1.33
2022-09-07T23:23:38.147Z,0.95
2022-09-07T23:26:05.970Z,0.90
2022-09-07T23:28:33.265Z,1.00
2022-09-07T23:31:00.411Z,1.00
2022-09-07T23:33:27.855Z,0.77
2022-09-07T23:36:01.692Z,0.57
2022-09-07T23:38:29.363Z,0.63
2022-09-07T23:40:57.315Z,0.60
2022-09-07T23:43:27.214Z,1.02
2022-09-07T23:45:54.549Z,0.85
2022-09-07T23:48:22.244Z,1.02
2022-09-07T23:50:49.548Z,0.60
2022-09-07T23:53:17.623Z,0.63
2022-09-07T23:55:44.816Z,0.40
2022-09-07T23:58:11.718Z,0.63
